sensor_id;sensor_type;location;lat;lon;timestamp;P1;durP1;ratioP1;P2;durP2;ratioP2
39140;SDS011;24875;48.436;10.298;2022-12-11T00:02:05;17.77;;;8.43;;
39140;SDS011;24875;48.436;10.298;2022-12-11T00:04:31;24.63;;;9.60;;
39140;SDS011;24875;48.436;10.298;2022-12-11T00:06:58;24.57;;;8.23;;
39140;SDS011;24875;48.436;10.298;2022-12-11T00:09:25;21.60;;;9.27;;
39140;SDS011;24875;48.436;10.298;2022-12-11T00:11:52;21.67;;;8.23;;
39140;SDS011;24875;48.436;10.298;2022-12-11T00:14:18;23.07;;;8.50;;
39140;SDS011;24875;48.436;10.298;2022-12-11T00:16:46;21.70;;;7.73;;
39140;SDS011;24875;48.436;10.298;2022-12-11T00:19:13;18.00;;;7.47;;
39140;SDS011;24875;48.436;10.298;2022-12-11T00:21:39;20.93;;;7.90;;
39140;SDS011;24875;48.436;10.298;2022-12-11T00:24:06;24.53;;;8.40;;
39140;SDS011;24875;48.436;10.298;2022-12-11T00:26:34;23.90;;;8.57;;
39140;SDS011;24875;48.436;10.298;2022-12-11T00:29:01;19.50;;;7.90;;
39140;SDS011;24875;48.436;10.298;2022-12-11T00:31:28;23.47;;;8.70;;
39140;SDS011;24875;48.436;10.298;2022-12-11T00:33:55;23.60;;;9.17;;
39140;SDS011;24875;48.436;10.298;2022-12-11T00:36:22;23.13;;;9.47;;
39140;SDS011;24875;48.436;10.298;2022-12-11T00:38:50;28.37;;;8.80;;
39140;SDS011;24875;48.436;10.298;2022-12-11T00:41:17;24.87;;;10.10;;
39140;SDS011;24875;48.436;10.298;2022-12-11T00:43:45;23.80;;;8.70;;
39140;SDS011;24875;48.436;10.298;2022-12-11T00:46:12;21.27;;;8.27;;
39140;SDS011;24875;48.436;10.298;2022-12-11T00:48:38;25.50;;;9.10;;
39140;SDS011;24875;48.436;10.298;2022-12-11T00:51:05;33.60;;;11.77;;
39140;SDS011;24875;48.436;10.298;2022-12-11T00:53:32;31.20;;;10.07;;
39140;SDS011;24875;48.436;10.298;2022-12-11T00:55:58;34.80;;;10.47;;
39140;SDS011;24875;48.436;10.298;2022-12-11T00:58:25;35.63;;;12.07;;
39140;SDS011;24875;48.436;10.298;2022-12-11T01:00:53;30.77;;;9.87;;
39140;SDS011;24875;48.436;10.298;2022-12-11T01:03:20;44.90;;;13.80;;
39140;SDS011;24875;48.436;10.298;2022-12-11T01:05:50;31.07;;;11.80;;
39140;SDS011;24875;48.436;10.298;2022-12-11T01:08:17;32.63;;;11.10;;
39140;SDS011;24875;48.436;10.298;2022-12-11T01:10:44;27.47;;;10.30;;
39140;SDS011;24875;48.436;10.298;2022-12-11T01:13:11;22.90;;;10.37;;
39140;SDS011;24875;48.436;10.298;2022-12-11T01:15:38;22.57;;;9.27;;
39140;SDS011;24875;48.436;10.298;2022-12-11T01:18:07;16.53;;;7.73;;
39140;SDS011;24875;48.436;10.298;2022-12-11T01:20:34;17.87;;;7.83;;
39140;SDS011;24875;48.436;10.298;2022-12-11T01:23:03;20.53;;;7.83;;
39140;SDS011;24875;48.436;10.298;2022-12-11T01:25:30;21.87;;;7.97;;
39140;SDS011;24875;48.436;10.298;2022-12-11T01:27:57;21.20;;;8.40;;
39140;SDS011;24875;48.436;10.298;2022-12-11T01:30:24;20.37;;;8.37;;
39140;SDS011;24875;48.436;10.298;2022-12-11T01:32:51;25.07;;;8.70;;
39140;SDS011;24875;48.436;10.298;2022-12-11T01:35:19;21.90;;;8.57;;
39140;SDS011;24875;48.436;10.298;2022-12-11T01:37:46;24.47;;;8.97;;
39140;SDS011;24875;48.436;10.298;2022-12-11T01:40:13;17.23;;;6.77;;
39140;SDS011;24875;48.436;10.298;2022-12-11T01:42:40;19.87;;;8.17;;
39140;SDS011;24875;48.436;10.298;2022-12-11T01:47:59;21.73;;;7.43;;
39140;SDS011;24875;48.436;10.298;2022-12-11T01:50:32;28.37;;;10.23;;
39140;SDS011;24875;48.436;10.298;2022-12-11T01:53:02;32.13;;;11.83;;
39140;SDS011;24875;48.436;10.298;2022-12-11T01:55:32;25.73;;;10.67;;
39140;SDS011;24875;48.436;10.298;2022-12-11T01:57:59;23.13;;;9.47;;
39140;SDS011;24875;48.436;10.298;2022-12-11T02:00:28;18.87;;;8.40;;
39140;SDS011;24875;48.436;10.298;2022-12-11T02:02:54;26.70;;;9.33;;
39140;SDS011;24875;48.436;10.298;2022-12-11T02:05:21;20.57;;;7.53;;
39140;SDS011;24875;48.436;10.298;2022-12-11T02:07:50;21.27;;;7.87;;
39140;SDS011;24875;48.436;10.298;2022-12-11T02:10:21;19.57;;;8.27;;
39140;SDS011;24875;48.436;10.298;2022-12-11T02:12:52;24.43;;;8.13;;
39140;SDS011;24875;48.436;10.298;2022-12-11T02:15:25;20.63;;;8.10;;
39140;SDS011;24875;48.436;10.298;2022-12-11T02:18:06;21.80;;;7.83;;
39140;SDS011;24875;48.436;10.298;2022-12-11T02:20:41;23.93;;;8.83;;
39140;SDS011;24875;48.436;10.298;2022-12-11T02:23:23;19.63;;;7.53;;
39140;SDS011;24875;48.436;10.298;2022-12-11T02:26:02;17.90;;;6.97;;
39140;SDS011;24875;48.436;10.298;2022-12-11T02:28:40;24.90;;;7.97;;
39140;SDS011;24875;48.436;10.298;2022-12-11T02:31:12;25.83;;;9.37;;
39140;SDS011;24875;48.436;10.298;2022-12-11T02:33:43;22.33;;;8.03;;
39140;SDS011;24875;48.436;10.298;2022-12-11T02:36:13;23.27;;;8.27;;
39140;SDS011;24875;48.436;10.298;2022-12-11T02:38:43;16.93;;;8.17;;
39140;SDS011;24875;48.436;10.298;2022-12-11T02:41:14;21.40;;;8.63;;
39140;SDS011;24875;48.436;10.298;2022-12-11T02:43:45;22.37;;;7.80;;
39140;SDS011;24875;48.436;10.298;2022-12-11T02:46:14;21.03;;;8.00;;
39140;SDS011;24875;48.436;10.298;2022-12-11T02:48:43;21.10;;;7.80;;
39140;SDS011;24875;48.436;10.298;2022-12-11T02:51:13;17.40;;;7.50;;
39140;SDS011;24875;48.436;10.298;2022-12-11T02:53:42;26.27;;;8.80;;
39140;SDS011;24875;48.436;10.298;2022-12-11T02:56:12;19.53;;;7.30;;
39140;SDS011;24875;48.436;10.298;2022-12-11T02:58:46;21.07;;;7.33;;
39140;SDS011;24875;48.436;10.298;2022-12-11T03:01:15;17.90;;;6.53;;
39140;SDS011;24875;48.436;10.298;2022-12-11T03:03:42;20.27;;;7.67;;
39140;SDS011;24875;48.436;10.298;2022-12-11T03:06:09;23.20;;;7.57;;
39140;SDS011;24875;48.436;10.298;2022-12-11T03:08:38;15.53;;;7.10;;
39140;SDS011;24875;48.436;10.298;2022-12-11T03:11:08;14.37;;;6.13;;
39140;SDS011;24875;48.436;10.298;2022-12-11T03:13:35;20.30;;;7.00;;
39140;SDS011;24875;48.436;10.298;2022-12-11T03:16:06;25.27;;;8.23;;
39140;SDS011;24875;48.436;10.298;2022-12-11T03:18:38;21.60;;;7.27;;
39140;SDS011;24875;48.436;10.298;2022-12-11T03:21:11;21.83;;;8.03;;
39140;SDS011;24875;48.436;10.298;2022-12-11T03:23:43;20.47;;;6.83;;
39140;SDS011;24875;48.436;10.298;2022-12-11T03:26:15;20.10;;;8.23;;
39140;SDS011;24875;48.436;10.298;2022-12-11T03:28:44;21.93;;;8.00;;
39140;SDS011;24875;48.436;10.298;2022-12-11T03:31:18;24.00;;;8.03;;
39140;SDS011;24875;48.436;10.298;2022-12-11T03:33:51;23.67;;;7.47;;
39140;SDS011;24875;48.436;10.298;2022-12-11T03:36:23;17.13;;;6.80;;
39140;SDS011;24875;48.436;10.298;2022-12-11T03:38:53;18.37;;;8.67;;
39140;SDS011;24875;48.436;10.298;2022-12-11T03:41:24;23.07;;;7.73;;
39140;SDS011;24875;48.436;10.298;2022-12-11T03:43:53;20.93;;;8.20;;
39140;SDS011;24875;48.436;10.298;2022-12-11T03:46:24;21.20;;;8.90;;
39140;SDS011;24875;48.436;10.298;2022-12-11T03:48:55;22.53;;;8.10;;
39140;SDS011;24875;48.436;10.298;2022-12-11T03:51:27;20.50;;;8.30;;
39140;SDS011;24875;48.436;10.298;2022-12-11T03:53:54;22.23;;;9.23;;
39140;SDS011;24875;48.436;10.298;2022-12-11T03:56:22;22.07;;;8.03;;
39140;SDS011;24875;48.436;10.298;2022-12-11T03:58:51;8.00;;;4.10;;
39140;SDS011;24875;48.436;10.298;2022-12-11T04:01:18;19.10;;;7.00;;
39140;SDS011;24875;48.436;10.298;2022-12-11T04:03:46;19.67;;;7.60;;
39140;SDS011;24875;48.436;10.298;2022-12-11T04:06:13;16.33;;;8.17;;
39140;SDS011;24875;48.436;10.298;2022-12-11T04:08:39;11.63;;;5.20;;
39140;SDS011;24875;48.436;10.298;2022-12-11T04:11:06;15.83;;;5.93;;
39140;SDS011;24875;48.436;10.298;2022-12-11T04:13:49;18.67;;;7.30;;
39140;SDS011;24875;48.436;10.298;2022-12-11T04:16:36;17.47;;;6.60;;
39140;SDS011;24875;48.436;10.298;2022-12-11T04:19:03;19.50;;;7.60;;
39140;SDS011;24875;48.436;10.298;2022-12-11T04:21:47;20.83;;;7.90;;
39140;SDS011;24875;48.436;10.298;2022-12-11T04:24:31;19.20;;;8.13;;
39140;SDS011;24875;48.436;10.298;2022-12-11T04:26:58;23.87;;;8.60;;
39140;SDS011;24875;48.436;10.298;2022-12-11T04:29:25;26.27;;;8.93;;
39140;SDS011;24875;48.436;10.298;2022-12-11T04:31:51;23.07;;;7.57;;
39140;SDS011;24875;48.436;10.298;2022-12-11T04:34:19;19.90;;;8.03;;
39140;SDS011;24875;48.436;10.298;2022-12-11T04:36:46;20.77;;;8.70;;
39140;SDS011;24875;48.436;10.298;2022-12-11T04:39:12;17.20;;;6.17;;
39140;SDS011;24875;48.436;10.298;2022-12-11T04:41:39;19.47;;;7.90;;
39140;SDS011;24875;48.436;10.298;2022-12-11T04:44:06;18.40;;;8.17;;
39140;SDS011;24875;48.436;10.298;2022-12-11T04:46:32;20.77;;;7.90;;
39140;SDS011;24875;48.436;10.298;2022-12-11T04:48:59;22.57;;;8.97;;
39140;SDS011;24875;48.436;10.298;2022-12-11T04:51:27;20.37;;;8.37;;
39140;SDS011;24875;48.436;10.298;2022-12-11T04:53:54;18.57;;;7.87;;
39140;SDS011;24875;48.436;10.298;2022-12-11T04:56:20;31.00;;;9.37;;
39140;SDS011;24875;48.436;10.298;2022-12-11T04:58:47;28.00;;;9.73;;
39140;SDS011;24875;48.436;10.298;2022-12-11T05:01:14;29.83;;;9.93;;
39140;SDS011;24875;48.436;10.298;2022-12-11T05:03:42;29.23;;;10.73;;
39140;SDS011;24875;48.436;10.298;2022-12-11T05:06:09;38.03;;;10.17;;
39140;SDS011;24875;48.436;10.298;2022-12-11T05:08:38;31.83;;;10.43;;
39140;SDS011;24875;48.436;10.298;2022-12-11T05:11:06;30.63;;;10.80;;
39140;SDS011;24875;48.436;10.298;2022-12-11T05:13:35;32.03;;;11.17;;
39140;SDS011;24875;48.436;10.298;2022-12-11T05:16:03;23.80;;;9.57;;
39140;SDS011;24875;48.436;10.298;2022-12-11T05:18:30;28.17;;;10.00;;
39140;SDS011;24875;48.436;10.298;2022-12-11T05:20:57;31.07;;;10.87;;
39140;SDS011;24875;48.436;10.298;2022-12-11T05:23:25;31.43;;;10.40;;
39140;SDS011;24875;48.436;10.298;2022-12-11T05:25:54;22.63;;;10.80;;
39140;SDS011;24875;48.436;10.298;2022-12-11T05:28:22;15.20;;;7.23;;
39140;SDS011;24875;48.436;10.298;2022-12-11T05:30:53;18.50;;;6.93;;
39140;SDS011;24875;48.436;10.298;2022-12-11T05:33:20;15.43;;;6.30;;
39140;SDS011;24875;48.436;10.298;2022-12-11T05:35:47;9.80;;;5.87;;
39140;SDS011;24875;48.436;10.298;2022-12-11T05:38:14;11.43;;;4.57;;
39140;SDS011;24875;48.436;10.298;2022-12-11T05:40:40;18.83;;;7.30;;
39140;SDS011;24875;48.436;10.298;2022-12-11T05:43:08;18.47;;;7.53;;
39140;SDS011;24875;48.436;10.298;2022-12-11T05:45:35;15.10;;;7.17;;
39140;SDS011;24875;48.436;10.298;2022-12-11T05:48:02;22.73;;;8.53;;
39140;SDS011;24875;48.436;10.298;2022-12-11T05:50:29;16.53;;;6.07;;
39140;SDS011;24875;48.436;10.298;2022-12-11T05:52:55;19.37;;;7.23;;
39140;SDS011;24875;48.436;10.298;2022-12-11T05:55:22;18.03;;;7.50;;
39140;SDS011;24875;48.436;10.298;2022-12-11T05:57:48;20.67;;;7.70;;
39140;SDS011;24875;48.436;10.298;2022-12-11T06:00:16;16.70;;;7.90;;
39140;SDS011;24875;48.436;10.298;2022-12-11T06:02:43;16.40;;;6.67;;
39140;SDS011;24875;48.436;10.298;2022-12-11T06:05:09;20.83;;;8.70;;
39140;SDS011;24875;48.436;10.298;2022-12-11T06:07:36;17.37;;;7.47;;
39140;SDS011;24875;48.436;10.298;2022-12-11T06:10:03;18.70;;;8.20;;
39140;SDS011;24875;48.436;10.298;2022-12-11T06:12:30;22.77;;;8.60;;
39140;SDS011;24875;48.436;10.298;2022-12-11T06:14:56;18.50;;;7.93;;
39140;SDS011;24875;48.436;10.298;2022-12-11T06:17:24;19.97;;;8.27;;
39140;SDS011;24875;48.436;10.298;2022-12-11T06:19:51;18.20;;;7.97;;
39140;SDS011;24875;48.436;10.298;2022-12-11T06:22:17;22.90;;;7.50;;
39140;SDS011;24875;48.436;10.298;2022-12-11T06:24:44;20.13;;;7.93;;
39140;SDS011;24875;48.436;10.298;2022-12-11T06:27:12;20.27;;;7.97;;
39140;SDS011;24875;48.436;10.298;2022-12-11T06:29:38;21.27;;;8.27;;
39140;SDS011;24875;48.436;10.298;2022-12-11T06:32:05;16.80;;;7.40;;
39140;SDS011;24875;48.436;10.298;2022-12-11T06:34:33;16.63;;;6.73;;
39140;SDS011;24875;48.436;10.298;2022-12-11T06:36:59;16.37;;;6.70;;
39140;SDS011;24875;48.436;10.298;2022-12-11T06:39:26;20.23;;;8.07;;
39140;SDS011;24875;48.436;10.298;2022-12-11T06:41:52;19.67;;;7.00;;
39140;SDS011;24875;48.436;10.298;2022-12-11T06:44:19;29.38;;;10.95;;
39140;SDS011;24875;48.436;10.298;2022-12-11T06:46:45;19.23;;;7.63;;
39140;SDS011;24875;48.436;10.298;2022-12-11T06:49:12;18.03;;;7.40;;
39140;SDS011;24875;48.436;10.298;2022-12-11T06:51:40;17.43;;;6.73;;
39140;SDS011;24875;48.436;10.298;2022-12-11T06:54:06;16.87;;;6.00;;
39140;SDS011;24875;48.436;10.298;2022-12-11T06:56:33;15.50;;;6.20;;
39140;SDS011;24875;48.436;10.298;2022-12-11T06:59:00;10.97;;;5.57;;
39140;SDS011;24875;48.436;10.298;2022-12-11T07:01:27;17.20;;;7.07;;
39140;SDS011;24875;48.436;10.298;2022-12-11T07:03:54;11.63;;;5.27;;
39140;SDS011;24875;48.436;10.298;2022-12-11T07:06:21;15.90;;;6.93;;
39140;SDS011;24875;48.436;10.298;2022-12-11T07:08:50;21.00;;;6.17;;
39140;SDS011;24875;48.436;10.298;2022-12-11T07:11:17;15.80;;;6.97;;
39140;SDS011;24875;48.436;10.298;2022-12-11T07:13:47;14.17;;;6.47;;
39140;SDS011;24875;48.436;10.298;2022-12-11T07:16:14;16.17;;;6.70;;
39140;SDS011;24875;48.436;10.298;2022-12-11T07:18:42;16.33;;;6.17;;
39140;SDS011;24875;48.436;10.298;2022-12-11T07:21:12;29.07;;;8.37;;
39140;SDS011;24875;48.436;10.298;2022-12-11T07:23:39;18.53;;;7.20;;
39140;SDS011;24875;48.436;10.298;2022-12-11T07:26:08;20.90;;;7.83;;
39140;SDS011;24875;48.436;10.298;2022-12-11T07:28:37;14.33;;;6.07;;
39140;SDS011;24875;48.436;10.298;2022-12-11T07:31:04;19.73;;;6.97;;
39140;SDS011;24875;48.436;10.298;2022-12-11T07:33:31;13.30;;;6.20;;
39140;SDS011;24875;48.436;10.298;2022-12-11T07:35:59;13.83;;;6.47;;
39140;SDS011;24875;48.436;10.298;2022-12-11T07:38:26;19.13;;;6.60;;
39140;SDS011;24875;48.436;10.298;2022-12-11T07:40:53;17.13;;;7.23;;
39140;SDS011;24875;48.436;10.298;2022-12-11T07:43:21;12.87;;;6.57;;
39140;SDS011;24875;48.436;10.298;2022-12-11T07:45:47;13.83;;;6.20;;
39140;SDS011;24875;48.436;10.298;2022-12-11T07:48:14;18.50;;;7.33;;
39140;SDS011;24875;48.436;10.298;2022-12-11T07:50:40;23.57;;;8.63;;
39140;SDS011;24875;48.436;10.298;2022-12-11T07:53:07;22.33;;;8.47;;
39140;SDS011;24875;48.436;10.298;2022-12-11T07:55:33;24.10;;;8.97;;
39140;SDS011;24875;48.436;10.298;2022-12-11T07:58:00;25.97;;;9.80;;
39140;SDS011;24875;48.436;10.298;2022-12-11T08:00:28;17.70;;;7.33;;
39140;SDS011;24875;48.436;10.298;2022-12-11T08:02:54;18.33;;;8.00;;
39140;SDS011;24875;48.436;10.298;2022-12-11T08:05:21;28.03;;;9.87;;
39140;SDS011;24875;48.436;10.298;2022-12-11T08:07:47;19.77;;;8.70;;
39140;SDS011;24875;48.436;10.298;2022-12-11T08:10:14;15.50;;;7.97;;
39140;SDS011;24875;48.436;10.298;2022-12-11T08:12:40;38.00;;;13.33;;
39140;SDS011;24875;48.436;10.298;2022-12-11T08:15:07;26.27;;;10.07;;
39140;SDS011;24875;48.436;10.298;2022-12-11T08:17:36;16.73;;;7.57;;
39140;SDS011;24875;48.436;10.298;2022-12-11T08:20:02;16.53;;;7.13;;
39140;SDS011;24875;48.436;10.298;2022-12-11T08:22:29;15.43;;;6.53;;
39140;SDS011;24875;48.436;10.298;2022-12-11T08:24:56;13.07;;;5.83;;
39140;SDS011;24875;48.436;10.298;2022-12-11T08:27:22;22.60;;;11.13;;
39140;SDS011;24875;48.436;10.298;2022-12-11T08:29:50;21.50;;;9.50;;
39140;SDS011;24875;48.436;10.298;2022-12-11T08:32:17;24.33;;;9.23;;
39140;SDS011;24875;48.436;10.298;2022-12-11T08:34:44;20.70;;;8.87;;
39140;SDS011;24875;48.436;10.298;2022-12-11T08:37:11;16.10;;;6.63;;
39140;SDS011;24875;48.436;10.298;2022-12-11T08:39:37;16.53;;;8.20;;
39140;SDS011;24875;48.436;10.298;2022-12-11T08:42:04;19.07;;;8.27;;
39140;SDS011;24875;48.436;10.298;2022-12-11T08:44:32;14.10;;;6.63;;
39140;SDS011;24875;48.436;10.298;2022-12-11T08:46:58;8.83;;;4.93;;
39140;SDS011;24875;48.436;10.298;2022-12-11T08:49:25;15.73;;;6.33;;
39140;SDS011;24875;48.436;10.298;2022-12-11T08:51:53;13.90;;;5.53;;
39140;SDS011;24875;48.436;10.298;2022-12-11T08:54:19;20.00;;;7.87;;
39140;SDS011;24875;48.436;10.298;2022-12-11T08:56:46;14.87;;;6.80;;
39140;SDS011;24875;48.436;10.298;2022-12-11T08:59:13;20.83;;;8.17;;
39140;SDS011;24875;48.436;10.298;2022-12-11T09:01:39;20.43;;;8.60;;
39140;SDS011;24875;48.436;10.298;2022-12-11T09:04:06;22.73;;;8.60;;
39140;SDS011;24875;48.436;10.298;2022-12-11T09:06:32;19.33;;;8.67;;
39140;SDS011;24875;48.436;10.298;2022-12-11T09:09:00;22.37;;;9.93;;
39140;SDS011;24875;48.436;10.298;2022-12-11T09:11:29;14.77;;;7.03;;
39140;SDS011;24875;48.436;10.298;2022-12-11T09:13:58;21.47;;;7.77;;
39140;SDS011;24875;48.436;10.298;2022-12-11T09:16:25;21.63;;;8.30;;
39140;SDS011;24875;48.436;10.298;2022-12-11T09:18:53;23.77;;;8.27;;
39140;SDS011;24875;48.436;10.298;2022-12-11T09:21:22;16.20;;;6.07;;
39140;SDS011;24875;48.436;10.298;2022-12-11T09:23:51;21.97;;;7.53;;
39140;SDS011;24875;48.436;10.298;2022-12-11T09:26:20;19.37;;;6.93;;
39140;SDS011;24875;48.436;10.298;2022-12-11T09:28:46;17.23;;;7.37;;
39140;SDS011;24875;48.436;10.298;2022-12-11T09:31:16;20.90;;;6.60;;
39140;SDS011;24875;48.436;10.298;2022-12-11T09:33:45;22.47;;;8.67;;
39140;SDS011;24875;48.436;10.298;2022-12-11T09:36:12;17.53;;;7.83;;
39140;SDS011;24875;48.436;10.298;2022-12-11T09:38:38;16.80;;;7.47;;
39140;SDS011;24875;48.436;10.298;2022-12-11T09:41:15;20.90;;;8.57;;
39140;SDS011;24875;48.436;10.298;2022-12-11T09:43:56;24.60;;;6.77;;
39140;SDS011;24875;48.436;10.298;2022-12-11T09:46:27;11.47;;;4.80;;
39140;SDS011;24875;48.436;10.298;2022-12-11T09:48:56;15.70;;;6.70;;
39140;SDS011;24875;48.436;10.298;2022-12-11T09:51:25;15.33;;;6.27;;
39140;SDS011;24875;48.436;10.298;2022-12-11T09:53:55;15.67;;;6.53;;
39140;SDS011;24875;48.436;10.298;2022-12-11T09:56:30;20.60;;;6.43;;
39140;SDS011;24875;48.436;10.298;2022-12-11T09:59:01;19.23;;;6.93;;
39140;SDS011;24875;48.436;10.298;2022-12-11T10:01:36;24.03;;;8.03;;
39140;SDS011;24875;48.436;10.298;2022-12-11T10:04:13;15.67;;;7.23;;
39140;SDS011;24875;48.436;10.298;2022-12-11T10:06:53;12.60;;;5.23;;
39140;SDS011;24875;48.436;10.298;2022-12-11T10:09:29;14.07;;;5.80;;
39140;SDS011;24875;48.436;10.298;2022-12-11T10:12:10;18.43;;;7.60;;
39140;SDS011;24875;48.436;10.298;2022-12-11T10:14:53;13.43;;;6.40;;
39140;SDS011;24875;48.436;10.298;2022-12-11T10:17:30;11.60;;;4.90;;
39140;SDS011;24875;48.436;10.298;2022-12-11T10:20:01;11.43;;;5.97;;
39140;SDS011;24875;48.436;10.298;2022-12-11T10:22:38;14.73;;;5.40;;
39140;SDS011;24875;48.436;10.298;2022-12-11T10:25:06;10.43;;;4.97;;
39140;SDS011;24875;48.436;10.298;2022-12-11T10:27:42;7.50;;;4.07;;
39140;SDS011;24875;48.436;10.298;2022-12-11T10:30:12;10.97;;;4.97;;
39140;SDS011;24875;48.436;10.298;2022-12-11T10:32:42;15.07;;;6.07;;
39140;SDS011;24875;48.436;10.298;2022-12-11T10:35:18;12.37;;;6.20;;
39140;SDS011;24875;48.436;10.298;2022-12-11T10:37:53;25.30;;;5.53;;
39140;SDS011;24875;48.436;10.298;2022-12-11T10:40:22;11.33;;;5.07;;
39140;SDS011;24875;48.436;10.298;2022-12-11T10:42:52;16.47;;;6.43;;
39140;SDS011;24875;48.436;10.298;2022-12-11T10:45:19;11.47;;;5.10;;
39140;SDS011;24875;48.436;10.298;2022-12-11T10:47:45;15.00;;;4.47;;
39140;SDS011;24875;48.436;10.298;2022-12-11T10:50:20;17.03;;;5.33;;
39140;SDS011;24875;48.436;10.298;2022-12-11T10:52:47;15.67;;;6.07;;
39140;SDS011;24875;48.436;10.298;2022-12-11T10:55:16;14.00;;;6.67;;
39140;SDS011;24875;48.436;10.298;2022-12-11T10:57:54;17.47;;;5.50;;
39140;SDS011;24875;48.436;10.298;2022-12-11T11:00:32;10.80;;;5.40;;
39140;SDS011;24875;48.436;10.298;2022-12-11T11:03:01;11.30;;;5.00;;
39140;SDS011;24875;48.436;10.298;2022-12-11T11:05:30;17.73;;;6.17;;
39140;SDS011;24875;48.436;10.298;2022-12-11T11:08:02;13.87;;;5.67;;
39140;SDS011;24875;48.436;10.298;2022-12-11T11:10:36;15.27;;;6.60;;
39140;SDS011;24875;48.436;10.298;2022-12-11T11:13:03;12.33;;;5.37;;
39140;SDS011;24875;48.436;10.298;2022-12-11T11:15:30;14.67;;;6.23;;
39140;SDS011;24875;48.436;10.298;2022-12-11T11:17:59;11.93;;;5.53;;
39140;SDS011;24875;48.436;10.298;2022-12-11T11:20:35;18.53;;;5.97;;
39140;SDS011;24875;48.436;10.298;2022-12-11T11:23:03;14.20;;;6.63;;
39140;SDS011;24875;48.436;10.298;2022-12-11T11:25:38;28.00;;;9.43;;
39140;SDS011;24875;48.436;10.298;2022-12-11T11:28:06;20.47;;;7.33;;
39140;SDS011;24875;48.436;10.298;2022-12-11T11:30:52;16.10;;;5.43;;
39140;SDS011;24875;48.436;10.298;2022-12-11T11:33:22;15.00;;;5.83;;
39140;SDS011;24875;48.436;10.298;2022-12-11T11:35:50;17.47;;;7.43;;
39140;SDS011;24875;48.436;10.298;2022-12-11T11:38:18;16.97;;;7.83;;
39140;SDS011;24875;48.436;10.298;2022-12-11T11:40:48;21.70;;;8.03;;
39140;SDS011;24875;48.436;10.298;2022-12-11T11:43:27;16.73;;;6.93;;
39140;SDS011;24875;48.436;10.298;2022-12-11T11:46:02;16.77;;;6.47;;
39140;SDS011;24875;48.436;10.298;2022-12-11T11:48:35;17.83;;;5.83;;
39140;SDS011;24875;48.436;10.298;2022-12-11T11:51:11;13.30;;;6.20;;
39140;SDS011;24875;48.436;10.298;2022-12-11T11:53:41;18.30;;;8.10;;
39140;SDS011;24875;48.436;10.298;2022-12-11T11:56:16;20.33;;;7.83;;
39140;SDS011;24875;48.436;10.298;2022-12-11T11:58:49;19.47;;;7.00;;
39140;SDS011;24875;48.436;10.298;2022-12-11T12:01:26;15.83;;;5.90;;
39140;SDS011;24875;48.436;10.298;2022-12-11T12:03:53;16.10;;;7.23;;
39140;SDS011;24875;48.436;10.298;2022-12-11T12:06:25;17.33;;;7.17;;
39140;SDS011;24875;48.436;10.298;2022-12-11T12:09:04;17.90;;;7.57;;
39140;SDS011;24875;48.436;10.298;2022-12-11T12:11:43;15.50;;;5.97;;
39140;SDS011;24875;48.436;10.298;2022-12-11T12:14:15;13.40;;;4.97;;
39140;SDS011;24875;48.436;10.298;2022-12-11T12:16:48;19.60;;;7.10;;
39140;SDS011;24875;48.436;10.298;2022-12-11T12:19:31;12.47;;;5.60;;
39140;SDS011;24875;48.436;10.298;2022-12-11T12:22:12;20.40;;;7.57;;
39140;SDS011;24875;48.436;10.298;2022-12-11T12:25:09;5.80;;;2.93;;
39140;SDS011;24875;48.436;10.298;2022-12-11T12:27:43;13.87;;;5.67;;
39140;SDS011;24875;48.436;10.298;2022-12-11T12:30:17;9.20;;;4.07;;
39140;SDS011;24875;48.436;10.298;2022-12-11T12:32:47;11.70;;;5.87;;
39140;SDS011;24875;48.436;10.298;2022-12-11T12:35:29;11.70;;;5.07;;
39140;SDS011;24875;48.436;10.298;2022-12-11T12:38:02;12.23;;;4.50;;
39140;SDS011;24875;48.436;10.298;2022-12-11T12:40:35;15.20;;;7.93;;
39140;SDS011;24875;48.436;10.298;2022-12-11T12:43:25;17.10;;;6.30;;
39140;SDS011;24875;48.436;10.298;2022-12-11T12:46:04;13.67;;;7.13;;
39140;SDS011;24875;48.436;10.298;2022-12-11T12:48:35;13.30;;;5.40;;
39140;SDS011;24875;48.436;10.298;2022-12-11T12:51:02;19.57;;;7.17;;
39140;SDS011;24875;48.436;10.298;2022-12-11T12:53:30;4.20;;;2.73;;
39140;SDS011;24875;48.436;10.298;2022-12-11T12:55:59;12.97;;;6.57;;
39140;SDS011;24875;48.436;10.298;2022-12-11T12:58:29;16.90;;;7.17;;
39140;SDS011;24875;48.436;10.298;2022-12-11T13:01:07;10.50;;;5.27;;
39140;SDS011;24875;48.436;10.298;2022-12-11T13:03:35;16.97;;;6.97;;
39140;SDS011;24875;48.436;10.298;2022-12-11T13:06:14;16.20;;;6.77;;
39140;SDS011;24875;48.436;10.298;2022-12-11T13:08:52;21.20;;;7.93;;
39140;SDS011;24875;48.436;10.298;2022-12-11T13:11:19;14.23;;;6.73;;
39140;SDS011;24875;48.436;10.298;2022-12-11T13:14:00;15.30;;;7.03;;
39140;SDS011;24875;48.436;10.298;2022-12-11T13:16:34;18.77;;;8.50;;
39140;SDS011;24875;48.436;10.298;2022-12-11T13:19:02;13.47;;;6.07;;
39140;SDS011;24875;48.436;10.298;2022-12-11T13:21:41;9.67;;;4.27;;
39140;SDS011;24875;48.436;10.298;2022-12-11T13:24:15;16.53;;;6.90;;
39140;SDS011;24875;48.436;10.298;2022-12-11T13:26:49;18.93;;;6.67;;
39140;SDS011;24875;48.436;10.298;2022-12-11T13:29:29;12.13;;;5.30;;
39140;SDS011;24875;48.436;10.298;2022-12-11T13:32:00;12.90;;;5.57;;
39140;SDS011;24875;48.436;10.298;2022-12-11T13:34:31;15.03;;;6.17;;
39140;SDS011;24875;48.436;10.298;2022-12-11T13:37:00;17.20;;;6.57;;
39140;SDS011;24875;48.436;10.298;2022-12-11T13:39:29;14.20;;;6.57;;
39140;SDS011;24875;48.436;10.298;2022-12-11T13:41:58;15.37;;;7.33;;
39140;SDS011;24875;48.436;10.298;2022-12-11T13:44:28;11.77;;;4.87;;
39140;SDS011;24875;48.436;10.298;2022-12-11T13:46:57;20.63;;;7.30;;
39140;SDS011;24875;48.436;10.298;2022-12-11T13:49:28;21.73;;;9.33;;
39140;SDS011;24875;48.436;10.298;2022-12-11T13:51:59;15.17;;;7.40;;
39140;SDS011;24875;48.436;10.298;2022-12-11T13:54:28;18.60;;;6.63;;
39140;SDS011;24875;48.436;10.298;2022-12-11T13:56:58;17.33;;;5.93;;
39140;SDS011;24875;48.436;10.298;2022-12-11T13:59:30;10.10;;;3.77;;
39140;SDS011;24875;48.436;10.298;2022-12-11T14:02:02;13.87;;;5.67;;
39140;SDS011;24875;48.436;10.298;2022-12-11T14:04:31;14.50;;;5.57;;
39140;SDS011;24875;48.436;10.298;2022-12-11T14:06:59;20.50;;;6.60;;
39140;SDS011;24875;48.436;10.298;2022-12-11T14:09:26;14.70;;;5.73;;
39140;SDS011;24875;48.436;10.298;2022-12-11T14:11:54;17.00;;;6.23;;
39140;SDS011;24875;48.436;10.298;2022-12-11T14:14:23;18.97;;;7.33;;
39140;SDS011;24875;48.436;10.298;2022-12-11T14:16:54;9.33;;;4.87;;
39140;SDS011;24875;48.436;10.298;2022-12-11T14:19:23;14.67;;;5.80;;
39140;SDS011;24875;48.436;10.298;2022-12-11T14:21:53;16.97;;;6.07;;
39140;SDS011;24875;48.436;10.298;2022-12-11T14:24:21;10.93;;;4.53;;
39140;SDS011;24875;48.436;10.298;2022-12-11T14:26:49;16.80;;;6.40;;
39140;SDS011;24875;48.436;10.298;2022-12-11T14:29:22;10.93;;;5.03;;
39140;SDS011;24875;48.436;10.298;2022-12-11T14:31:50;14.87;;;6.23;;
39140;SDS011;24875;48.436;10.298;2022-12-11T14:34:18;20.37;;;6.03;;
39140;SDS011;24875;48.436;10.298;2022-12-11T14:36:50;15.27;;;6.80;;
39140;SDS011;24875;48.436;10.298;2022-12-11T14:39:20;28.07;;;10.10;;